createdAt,value
2018-04-08T00:00:46.269Z,11.20
2018-04-08T00:03:13.700Z,11.10
2018-04-08T00:05:41.105Z,11.10
2018-04-08T00:08:08.530Z,11.10
2018-04-08T00:10:35.951Z,11.00
2018-04-08T00:13:03.356Z,11.00
2018-04-08T00:15:30.767Z,11.00
2018-04-08T00:17:58.184Z,11.00
2018-04-08T00:20:26.367Z,10.90
2018-04-08T00:22:53.784Z,10.90
2018-04-08T00:25:21.958Z,10.80
2018-04-08T00:27:49.387Z,10.80
2018-04-08T00:30:16.800Z,10.80
2018-04-08T00:32:44.228Z,10.80
2018-04-08T00:35:11.628Z,10.70
2018-04-08T00:37:39.056Z,10.70
2018-04-08T00:40:06.464Z,10.60
2018-04-08T00:42:33.880Z,10.60
2018-04-08T00:45:01.292Z,10.60
2018-04-08T00:47:28.725Z,10.50
2018-04-08T00:49:56.876Z,10.50
2018-04-08T00:52:24.296Z,10.50
2018-04-08T00:54:52.488Z,10.30
2018-04-08T00:57:19.892Z,10.30
2018-04-08T00:59:48.072Z,10.20
2018-04-08T01:02:16.245Z,10.20
2018-04-08T01:04:43.649Z,10.20
2018-04-08T01:07:11.081Z,10.20
2018-04-08T01:09:38.505Z,10.30
2018-04-08T01:12:05.957Z,10.40
2018-04-08T01:14:33.377Z,10.40
2018-04-08T01:17:00.771Z,10.40
2018-04-08T01:19:28.944Z,10.20
2018-04-08T01:21:56.380Z,10.10
2018-04-08T01:24:23.800Z,10.20
2018-04-08T01:26:51.976Z,9.80
2018-04-08T01:29:20.148Z,9.80
2018-04-08T01:31:47.581Z,9.70
2018-04-08T01:34:15.048Z,9.70
2018-04-08T01:36:42.456Z,9.70
2018-04-08T01:39:10.652Z,9.70
2018-04-08T01:41:38.061Z,9.70
2018-04-08T01:44:05.492Z,9.70
2018-04-08T01:46:33.660Z,9.60
2018-04-08T01:49:01.079Z,9.50
2018-04-08T01:51:28.506Z,9.50
2018-04-08T01:53:56.012Z,9.40
2018-04-08T01:56:23.428Z,9.40
2018-04-08T01:58:51.612Z,9.30
2018-04-08T02:01:19.008Z,9.20
2018-04-08T02:03:46.427Z,9.20
2018-04-08T02:06:13.830Z,9.20
2018-04-08T02:08:41.232Z,9.20
2018-04-08T02:11:09.409Z,9.10
2018-04-08T02:13:36.817Z,9.10
2018-04-08T02:16:04.238Z,9.00
2018-04-08T02:18:31.648Z,9.00
2018-04-08T02:20:59.085Z,8.90
2018-04-08T02:23:26.532Z,8.90
2018-04-08T02:25:53.954Z,8.80
2018-04-08T02:28:22.139Z,8.70
2018-04-08T02:30:49.545Z,8.70
2018-04-08T02:33:17.724Z,8.60
2018-04-08T02:35:45.125Z,8.60
2018-04-08T02:38:12.557Z,8.50
2018-04-08T02:40:39.967Z,8.50
2018-04-08T02:43:07.377Z,8.40
2018-04-08T02:45:35.572Z,8.40
2018-04-08T02:48:02.979Z,8.30
2018-04-08T02:50:31.155Z,8.10
2018-04-08T02:52:58.570Z,8.10
2018-04-08T02:55:25.968Z,8.10
2018-04-08T02:57:53.401Z,8.10
2018-04-08T03:00:20.814Z,8.10
2018-04-08T03:02:48.240Z,8.10
2018-04-08T03:05:16.432Z,8.00
2018-04-08T03:07:43.853Z,8.00
2018-04-08T03:10:11.260Z,8.00
2018-04-08T03:12:39.435Z,7.90
2018-04-08T03:15:07.609Z,7.90
2018-04-08T03:17:35.073Z,7.90
2018-04-08T03:20:02.476Z,7.90
2018-04-08T03:22:30.647Z,7.90
2018-04-08T03:24:58.052Z,7.90
2018-04-08T03:27:25.472Z,7.80
2018-04-08T03:29:52.888Z,7.70
2018-04-08T03:32:20.292Z,7.60
2018-04-08T03:34:47.708Z,7.60
2018-04-08T03:37:15.133Z,7.60
2018-04-08T03:39:42.548Z,7.60
2018-04-08T03:42:09.963Z,7.50
2018-04-08T03:44:38.128Z,7.50
2018-04-08T03:47:06.316Z,7.50
2018-04-08T03:49:33.723Z,7.50
2018-04-08T03:52:01.904Z,7.60
2018-04-08T03:54:29.317Z,7.60
2018-04-08T03:56:56.731Z,7.60
2018-04-08T03:59:25.640Z,7.70
2018-04-08T04:01:53.825Z,7.70
2018-04-08T04:04:21.236Z,7.60
2018-04-08T04:06:49.424Z,7.50
2018-04-08T04:09:16.884Z,7.50
2018-04-08T04:11:44.289Z,7.50
2018-04-08T04:14:12.481Z,7.40
2018-04-08T04:16:39.894Z,7.30
2018-04-08T04:19:19.852Z,7.40
2018-04-08T04:21:59.085Z,7.40
2018-04-08T04:24:38.234Z,7.40
2018-04-08T04:27:05.636Z,7.40
2018-04-08T04:29:33.040Z,7.50
2018-04-08T04:32:00.461Z,7.60
2018-04-08T04:34:27.894Z,7.60
2018-04-08T04:36:55.311Z,7.60
2018-04-08T04:39:22.725Z,7.60
2018-04-08T04:41:50.128Z,7.70
2018-04-08T04:44:18.304Z,7.70
2018-04-08T04:46:45.725Z,7.70
2018-04-08T04:49:13.918Z,7.60
2018-04-08T04:51:41.325Z,7.50
2018-04-08T04:54:08.812Z,7.60
2018-04-08T04:56:36.227Z,7.50
2018-04-08T04:59:04.418Z,7.40
2018-04-08T05:01:31.841Z,7.40
2018-04-08T05:03:59.240Z,7.30
2018-04-08T05:06:26.708Z,7.30
2018-04-08T05:08:54.894Z,7.40
2018-04-08T05:11:22.288Z,7.40
2018-04-08T05:13:49.703Z,7.50
2018-04-08T05:16:17.091Z,7.60
2018-04-08T05:18:45.261Z,7.80
2018-04-08T05:21:12.660Z,7.80
2018-04-08T05:23:40.082Z,7.90
2018-04-08T05:26:07.492Z,7.90
2018-04-08T05:28:34.908Z,7.90
2018-04-08T05:31:03.076Z,7.90
2018-04-08T05:33:30.496Z,7.90
2018-04-08T05:35:57.916Z,7.90
2018-04-08T05:38:25.329Z,8.00
2018-04-08T05:40:52.728Z,8.10
2018-04-08T05:43:20.904Z,8.30
2018-04-08T05:45:48.303Z,8.20
2018-04-08T05:48:15.721Z,8.30
2018-04-08T05:50:43.130Z,8.30
2018-04-08T05:53:10.532Z,8.40
2018-04-08T05:55:37.964Z,8.50
2018-04-08T05:58:05.396Z,8.60
2018-04-08T06:00:32.771Z,8.70
2018-04-08T06:03:00.941Z,8.80
2018-04-08T06:05:29.108Z,9.00
2018-04-08T06:07:56.528Z,8.90
2018-04-08T06:10:23.932Z,9.10
2018-04-08T06:12:51.340Z,9.10
2018-04-08T06:15:18.756Z,9.20
2018-04-08T06:17:46.915Z,9.40
2018-04-08T06:20:15.100Z,9.40
2018-04-08T06:22:42.513Z,9.40
2018-04-08T06:25:09.924Z,9.50
2018-04-08T06:27:37.320Z,9.70
2018-04-08T06:30:04.794Z,9.80
2018-04-08T06:32:32.192Z,9.80
2018-04-08T06:34:59.618Z,9.90
2018-04-08T06:37:27.863Z,10.10
2018-04-08T06:39:55.232Z,10.10
2018-04-08T06:42:23.401Z,10.20
2018-04-08T06:44:50.812Z,10.20
2018-04-08T06:47:18.221Z,10.20
2018-04-08T06:49:46.408Z,10.40
2018-04-08T06:52:13.798Z,10.30
2018-04-08T06:54:41.212Z,10.50
2018-04-08T06:57:09.387Z,10.60
2018-04-08T06:59:36.796Z,10.60
2018-04-08T07:02:04.975Z,10.80
2018-04-08T07:04:33.149Z,10.90
2018-04-08T07:07:00.553Z,10.90
2018-04-08T07:09:28.728Z,11.10
2018-04-08T07:11:56.948Z,11.20
2018-04-08T07:14:24.324Z,11.20
2018-04-08T07:16:52.500Z,11.30
2018-04-08T07:19:19.908Z,11.30
2018-04-08T07:21:47.316Z,11.50
2018-04-08T07:24:14.727Z,11.60
2018-04-08T07:26:42.126Z,11.70
2018-04-08T07:29:09.535Z,11.80
2018-04-08T07:31:36.975Z,11.90
2018-04-08T07:34:04.388Z,12.00
2018-04-08T07:36:31.796Z,12.10
2018-04-08T07:38:59.224Z,12.20
2018-04-08T07:41:26.644Z,12.20
2018-04-08T07:43:54.049Z,12.30
2018-04-08T07:46:21.460Z,12.30
2018-04-08T07:48:48.877Z,12.40
2018-04-08T07:51:16.285Z,12.50
2018-04-08T07:53:43.688Z,12.70
2018-04-08T07:56:11.868Z,13.00
2018-04-08T07:58:39.284Z,12.90
2018-04-08T08:01:07.465Z,13.00
2018-04-08T08:03:34.891Z,13.00
2018-04-08T08:06:02.297Z,13.10
2018-04-08T08:08:29.715Z,13.20
2018-04-08T08:10:57.441Z,13.30
2018-04-08T08:13:25.227Z,13.30
2018-04-08T08:15:52.616Z,13.40
2018-04-08T08:18:20.838Z,13.60
2018-04-08T08:20:48.206Z,13.60
2018-04-08T08:23:16.376Z,13.80
2018-04-08T08:25:43.787Z,13.80
2018-04-08T08:28:11.196Z,14.00
2018-04-08T08:30:38.632Z,14.10
2018-04-08T08:33:06.059Z,14.20
2018-04-08T08:35:33.456Z,14.30
2018-04-08T08:38:00.869Z,14.40
2018-04-08T08:40:28.285Z,14.40
2018-04-08T08:42:55.704Z,14.50
2018-04-08T08:45:23.996Z,14.80
2018-04-08T08:47:51.403Z,14.80
2018-04-08T08:50:19.598Z,14.90
2018-04-08T08:52:47.007Z,14.80
2018-04-08T08:55:15.200Z,15.10
2018-04-08T08:57:42.629Z,15.10
2018-04-08T09:00:10.033Z,15.30
2018-04-08T09:02:38.247Z,15.40
2018-04-08T09:05:05.644Z,15.40
2018-04-08T09:07:33.840Z,15.60
2018-04-08T09:10:01.248Z,15.60
2018-04-08T09:12:29.440Z,15.90
2018-04-08T09:14:56.848Z,15.80
2018-04-08T09:17:25.042Z,15.90
2018-04-08T09:23:09.493Z,16.00
2018-04-08T09:25:51.781Z,16.00
2018-04-08T09:28:19.221Z,16.20
2018-04-08T09:30:46.619Z,16.40
2018-04-08T09:33:14.791Z,16.60
2018-04-08T09:35:42.196Z,16.60
2018-04-08T09:38:09.611Z,16.70
2018-04-08T09:40:37.051Z,16.90
2018-04-08T09:43:04.447Z,17.00
2018-04-08T09:45:32.620Z,17.00
2018-04-08T09:48:00.022Z,16.90
2018-04-08T09:50:27.420Z,17.00
2018-04-08T09:52:54.868Z,17.10
2018-04-08T09:55:22.280Z,17.30
2018-04-08T10:01:08.105Z,17.50
2018-04-08T10:03:45.980Z,17.40
2018-04-08T10:06:13.384Z,17.50
2018-04-08T10:08:40.805Z,17.80
2018-04-08T10:11:08.977Z,18.00
2018-04-08T10:13:36.397Z,18.00
2018-04-08T10:16:04.570Z,18.00
2018-04-08T10:18:31.989Z,17.90
2018-04-08T10:20:59.403Z,18.10
2018-04-08T10:23:26.893Z,18.30
2018-04-08T10:25:55.075Z,18.40
2018-04-08T10:28:22.497Z,18.40
2018-04-08T10:30:49.973Z,18.50
2018-04-08T10:33:17.376Z,18.60
2018-04-08T10:35:44.855Z,18.80
2018-04-08T10:38:12.265Z,18.60
2018-04-08T10:40:39.677Z,18.60
2018-04-08T10:43:07.083Z,18.90
2018-04-08T10:45:34.521Z,19.20
2018-04-08T10:48:01.933Z,19.40
2018-04-08T10:50:29.336Z,19.40
2018-04-08T10:52:56.807Z,19.50
2018-04-08T10:55:25.000Z,20.00
2018-04-08T10:57:52.420Z,20.00
2018-04-08T11:00:19.844Z,20.20
2018-04-08T11:02:48.019Z,20.50
2018-04-08T11:05:15.449Z,20.40
2018-04-08T11:07:43.624Z,21.30
2018-04-08T11:10:11.054Z,21.30
2018-04-08T11:12:39.212Z,22.30
2018-04-08T11:15:06.621Z,22.20
2018-04-08T11:17:34.069Z,22.30
2018-04-08T11:20:01.481Z,21.80
2018-04-08T11:22:28.928Z,22.20
2018-04-08T11:24:56.320Z,23.00
2018-04-08T11:27:23.724Z,23.60
2018-04-08T11:29:51.136Z,23.90
2018-04-08T11:32:18.592Z,24.40
2018-04-08T11:34:46.019Z,23.20
2018-04-08T11:37:13.415Z,23.20
2018-04-08T11:39:41.596Z,23.00
2018-04-08T11:42:09.013Z,22.90
2018-04-08T11:44:37.187Z,23.40
2018-04-08T11:47:04.608Z,23.40
2018-04-08T11:49:32.807Z,25.00
2018-04-08T11:52:00.217Z,24.90
2018-04-08T11:54:27.626Z,25.00
2018-04-08T11:56:55.074Z,24.50
2018-04-08T11:59:22.448Z,24.60
2018-04-08T12:01:50.613Z,25.50
2018-04-08T12:04:18.011Z,25.50
2018-04-08T12:06:45.417Z,25.60
2018-04-08T12:09:12.849Z,26.20
2018-04-08T12:11:40.264Z,26.30
2018-04-08T12:14:07.664Z,24.60
2018-04-08T12:16:35.078Z,25.20
2018-04-08T12:19:02.532Z,25.70
2018-04-08T12:21:29.920Z,25.50
2018-04-08T12:23:58.085Z,25.30
2018-04-08T12:26:27.860Z,25.90
2018-04-08T12:28:55.265Z,25.90
2018-04-08T12:31:22.747Z,25.50
2018-04-08T12:33:50.084Z,26.10
2018-04-08T12:36:17.493Z,26.80
2018-04-08T12:38:44.892Z,27.30
2018-04-08T12:41:12.352Z,27.50
2018-04-08T12:43:39.865Z,27.60
2018-04-08T12:46:08.060Z,27.00
2018-04-08T12:48:35.518Z,27.00
2018-04-08T12:51:02.901Z,27.20
2018-04-08T12:53:31.063Z,25.90
2018-04-08T12:55:59.252Z,26.90
2018-04-08T12:58:26.660Z,26.90
2018-04-08T13:00:54.149Z,27.00
2018-04-08T13:03:21.544Z,26.30
2018-04-08T13:05:48.953Z,27.00
2018-04-08T13:08:16.377Z,28.20
2018-04-08T13:10:43.821Z,28.20
2018-04-08T13:13:11.220Z,28.00
2018-04-08T13:15:38.628Z,28.80
2018-04-08T13:18:06.031Z,28.00
2018-04-08T13:20:33.449Z,28.00
2018-04-08T13:23:00.912Z,26.80
2018-04-08T13:25:28.344Z,27.30
2018-04-08T13:27:56.512Z,27.80
2018-04-08T13:30:23.912Z,27.80
2018-04-08T13:32:52.081Z,28.60
2018-04-08T13:35:20.247Z,28.70
2018-04-08T13:37:47.712Z,28.70
2018-04-08T13:40:15.114Z,28.50
2018-04-08T13:42:43.321Z,26.90
2018-04-08T13:45:10.732Z,26.90
2018-04-08T13:47:38.912Z,27.80
2018-04-08T13:50:06.312Z,27.80
2018-04-08T13:52:34.500Z,27.90
2018-04-08T13:55:01.924Z,27.90
2018-04-08T13:57:30.108Z,27.00
2018-04-08T13:59:57.512Z,26.90
2018-04-08T14:02:25.684Z,28.60
2018-04-08T14:04:53.861Z,29.30
2018-04-08T14:07:21.336Z,29.30
2018-04-08T14:09:48.710Z,27.50
2018-04-08T14:12:16.108Z,27.00
2018-04-08T14:14:43.512Z,27.00
2018-04-08T14:17:10.920Z,27.00
2018-04-08T14:19:38.329Z,28.10
2018-04-08T14:22:05.736Z,28.60
2018-04-08T14:24:33.280Z,28.90
2018-04-08T14:27:00.620Z,29.00
2018-04-08T14:29:28.016Z,28.00
2018-04-08T14:31:55.524Z,27.90
2018-04-08T14:34:22.976Z,28.60
2018-04-08T14:36:50.386Z,28.90
2018-04-08T14:39:17.788Z,28.60
2018-04-08T14:41:45.296Z,28.30
2018-04-08T14:44:12.712Z,28.00
2018-04-08T14:46:40.177Z,28.30
2018-04-08T14:49:07.540Z,28.40
2018-04-08T14:51:34.944Z,28.50
2018-04-08T14:54:02.349Z,27.80
2018-04-08T14:56:30.519Z,28.50
2018-04-08T14:58:57.940Z,28.50
2018-04-08T15:01:25.344Z,28.70
2018-04-08T15:03:52.761Z,28.40
2018-04-08T15:06:20.164Z,28.00
2018-04-08T15:08:47.579Z,28.20
2018-04-08T15:11:15.023Z,26.40
2018-04-08T15:13:43.185Z,26.50
2018-04-08T15:16:10.589Z,26.50
2018-04-08T15:18:38.008Z,27.10
2018-04-08T15:21:06.200Z,27.40
2018-04-08T15:23:33.600Z,27.40
2018-04-08T15:26:01.772Z,27.00
2018-04-08T15:28:29.961Z,27.00
2018-04-08T15:30:57.768Z,26.90
2018-04-08T15:33:25.149Z,26.80
2018-04-08T15:35:52.552Z,27.10
2018-04-08T15:38:19.970Z,26.60
2018-04-08T15:40:47.368Z,26.20
2018-04-08T15:43:14.784Z,26.90
2018-04-08T15:45:42.961Z,26.50
2018-04-08T15:48:10.416Z,26.50
2018-04-08T15:50:37.876Z,26.80
2018-04-08T15:53:05.293Z,26.50
2018-04-08T15:55:32.736Z,26.20
2018-04-08T15:58:00.144Z,25.90
2018-04-08T16:00:28.316Z,26.40
2018-04-08T16:02:55.752Z,26.40
2018-04-08T16:05:23.931Z,26.00
2018-04-08T16:07:51.327Z,25.90
2018-04-08T16:10:18.829Z,26.40
2018-04-08T16:12:46.240Z,26.50
2018-04-08T16:15:14.430Z,26.50
2018-04-08T16:17:41.872Z,26.50
2018-04-08T16:20:09.310Z,26.50
2018-04-08T16:22:37.452Z,26.00
2018-04-08T16:25:04.863Z,26.00
2018-04-08T16:27:33.065Z,25.60
2018-04-08T16:30:00.476Z,25.50
2018-04-08T16:32:28.639Z,24.90
2018-04-08T16:34:56.812Z,24.70
2018-04-08T16:37:24.220Z,24.70
2018-04-08T16:39:51.625Z,24.50
2018-04-08T16:42:19.031Z,24.20
2018-04-08T16:44:46.443Z,24.10
2018-04-08T16:47:13.857Z,24.10
2018-04-08T16:49:41.372Z,24.20
2018-04-08T16:52:08.812Z,24.20
2018-04-08T16:54:36.220Z,24.20
2018-04-08T16:57:04.452Z,23.80
2018-04-08T16:59:31.824Z,23.70
2018-04-08T17:01:59.992Z,23.20
2018-04-08T17:04:27.454Z,23.10
2018-04-08T17:06:54.820Z,23.00
2018-04-08T17:09:22.268Z,22.70
2018-04-08T17:11:49.633Z,22.60
2018-04-08T17:14:17.069Z,22.40
2018-04-08T17:16:44.564Z,22.20
2018-04-08T17:19:11.968Z,22.00
2018-04-08T17:21:40.139Z,21.80
2018-04-08T17:24:07.539Z,21.80
2018-04-08T17:26:34.954Z,21.60
2018-04-08T17:29:02.364Z,21.50
2018-04-08T17:31:29.768Z,21.40
2018-04-08T17:33:57.178Z,21.30
2018-04-08T17:36:24.661Z,21.10
2018-04-08T17:38:52.060Z,21.00
2018-04-08T17:41:19.477Z,20.90
2018-04-08T17:43:46.877Z,20.80
2018-04-08T17:46:14.284Z,20.60
2018-04-08T17:48:41.690Z,20.50
2018-04-08T17:51:09.091Z,20.40
2018-04-08T17:53:36.616Z,20.30
2018-04-08T17:56:04.037Z,20.20
2018-04-08T17:58:31.435Z,20.10
2018-04-08T18:00:58.852Z,19.90
2018-04-08T18:03:26.245Z,19.70
2018-04-08T18:05:53.661Z,19.60
2018-04-08T18:08:21.064Z,19.50
2018-04-08T18:10:48.476Z,19.30
2018-04-08T18:13:15.903Z,19.20
2018-04-08T18:15:44.077Z,19.00
2018-04-08T18:18:11.529Z,19.00
2018-04-08T18:20:39.000Z,18.90
2018-04-08T18:23:06.402Z,18.80
2018-04-08T18:25:33.828Z,18.70
2018-04-08T18:28:01.233Z,18.60
2018-04-08T18:30:28.661Z,18.50
2018-04-08T18:32:56.061Z,18.40
2018-04-08T18:35:23.480Z,18.30
2018-04-08T18:37:51.698Z,18.20
2018-04-08T18:40:19.101Z,18.20
2018-04-08T18:42:46.524Z,18.10
2018-04-08T18:45:14.737Z,17.90
2018-04-08T18:47:42.894Z,17.80
2018-04-08T18:50:10.301Z,17.70
2018-04-08T18:52:37.778Z,17.70
2018-04-08T18:55:05.181Z,17.60
2018-04-08T18:57:32.655Z,17.50
2018-04-08T19:00:00.077Z,17.40
2018-04-08T19:02:27.496Z,17.40
2018-04-08T19:04:55.698Z,17.40
2018-04-08T19:07:23.096Z,17.30
2018-04-08T19:09:51.272Z,17.30
2018-04-08T19:12:18.687Z,17.20
2018-04-08T19:14:52.803Z,17.20
2018-04-08T19:17:26.547Z,17.10
2018-04-08T19:19:53.956Z,17.10
2018-04-08T19:22:21.379Z,17.00
2018-04-08T19:24:48.787Z,16.90
2018-04-08T19:27:21.790Z,16.80
2018-04-08T19:29:49.964Z,16.70
2018-04-08T19:32:17.378Z,16.70
2018-04-08T19:34:45.686Z,16.60
2018-04-08T19:37:13.092Z,16.50
2018-04-08T19:39:40.505Z,16.50
2018-04-08T19:42:07.921Z,16.50
2018-04-08T19:44:35.337Z,16.40
2018-04-08T19:47:02.818Z,16.40
2018-04-08T19:49:30.183Z,16.30
2018-04-08T19:51:58.393Z,16.00
2018-04-08T19:54:25.803Z,16.00
2018-04-08T19:56:53.276Z,15.90
2018-04-08T19:59:20.685Z,15.90
2018-04-08T20:01:48.096Z,15.80
2018-04-08T20:04:15.557Z,15.70
2018-04-08T20:06:42.928Z,15.60
2018-04-08T20:09:10.339Z,15.60
2018-04-08T20:11:38.500Z,15.40
2018-04-08T20:14:06.669Z,15.40
2018-04-08T20:16:34.093Z,15.40
2018-04-08T20:19:02.272Z,15.30
2018-04-08T20:21:29.693Z,15.30
2018-04-08T20:23:57.876Z,15.20
2018-04-08T20:26:25.272Z,15.20
2018-04-08T20:28:53.090Z,15.20
2018-04-08T20:31:20.483Z,15.20
2018-04-08T20:33:48.650Z,15.10
2018-04-08T20:36:16.803Z,15.10
2018-04-08T20:38:44.972Z,15.10
2018-04-08T20:41:12.393Z,15.00
2018-04-08T20:43:39.789Z,15.00
2018-04-08T20:46:07.193Z,14.90
2018-04-08T20:48:34.596Z,14.80
2018-04-08T20:51:02.033Z,14.80
2018-04-08T20:53:29.444Z,14.80
2018-04-08T20:55:56.887Z,14.70
2018-04-08T20:58:24.312Z,14.70
2018-04-08T21:00:51.744Z,14.70
2018-04-08T21:03:19.159Z,14.60
2018-04-08T21:05:46.557Z,14.60
2018-04-08T21:08:13.966Z,14.50
2018-04-08T21:10:41.382Z,14.50
2018-04-08T21:13:08.793Z,14.50
2018-04-08T21:15:36.198Z,14.40
2018-04-08T21:18:03.600Z,14.30
2018-04-08T21:20:31.088Z,14.20
2018-04-08T21:22:58.512Z,14.20
2018-04-08T21:25:26.697Z,14.10
2018-04-08T21:27:54.129Z,14.10
2018-04-08T21:30:21.548Z,14.00
2018-04-08T21:32:49.730Z,13.90
2018-04-08T21:35:17.120Z,13.90
2018-04-08T21:37:44.525Z,13.90
2018-04-08T21:40:11.939Z,13.80
2018-04-08T21:42:39.365Z,13.80
2018-04-08T21:45:07.536Z,13.70
2018-04-08T21:47:35.700Z,13.70
2018-04-08T21:50:03.109Z,13.70
2018-04-08T21:52:31.292Z,13.60
2018-04-08T21:54:58.701Z,13.60
2018-04-08T21:57:26.121Z,13.60
2018-04-08T21:59:53.531Z,13.60
2018-04-08T22:02:20.936Z,13.50
2018-04-08T22:04:49.164Z,13.40
2018-04-08T22:07:16.575Z,13.40
2018-04-08T22:09:44.051Z,13.40
2018-04-08T22:12:11.487Z,13.30
2018-04-08T22:14:38.885Z,13.30
2018-04-08T22:17:06.316Z,13.30
2018-04-08T22:19:34.490Z,13.20
2018-04-08T22:22:01.911Z,13.20
2018-04-08T22:24:30.080Z,13.20
2018-04-08T22:26:58.255Z,13.20
2018-04-08T22:29:25.684Z,13.20
2018-04-08T22:31:53.091Z,13.20
2018-04-08T22:34:20.488Z,13.10
2018-04-08T22:36:47.936Z,13.10
2018-04-08T22:39:15.328Z,13.10
2018-04-08T22:41:43.544Z,13.10
2018-04-08T22:44:10.904Z,13.00
2018-04-08T22:46:38.334Z,13.00
2018-04-08T22:49:05.743Z,13.00
2018-04-08T22:51:33.193Z,13.00
2018-04-08T22:54:00.612Z,13.00
2018-04-08T22:56:28.030Z,13.00
2018-04-08T22:58:55.439Z,13.00
2018-04-08T23:01:22.852Z,12.80
2018-04-08T23:03:50.252Z,12.80
2018-04-08T23:06:18.432Z,12.70
2018-04-08T23:08:45.861Z,12.70
2018-04-08T23:11:14.034Z,12.70
2018-04-08T23:13:41.499Z,12.70
2018-04-08T23:16:08.915Z,12.70
2018-04-08T23:18:36.328Z,12.70
2018-04-08T23:21:03.757Z,12.70
2018-04-08T23:23:31.272Z,12.60
2018-04-08T23:25:58.692Z,12.60
2018-04-08T23:28:26.104Z,12.50
2018-04-08T23:30:54.417Z,12.50
2018-04-08T23:33:21.860Z,12.50
2018-04-08T23:35:49.276Z,12.50
2018-04-08T23:38:17.459Z,12.30
2018-04-08T23:40:44.864Z,12.30
2018-04-08T23:43:13.044Z,12.30
2018-04-08T23:45:40.480Z,12.30
2018-04-08T23:48:07.887Z,12.30
2018-04-08T23:50:36.073Z,12.30
2018-04-08T23:53:03.473Z,12.30
2018-04-08T23:55:30.893Z,12.30
2018-04-08T23:57:58.315Z,12.20
